createdAt,value
2022-09-20T00:00:02.890Z,54.8
2022-09-20T00:05:41.632Z,54.7
2022-09-20T00:11:02.833Z,54.7
2022-09-20T16:59:00.325Z,55.5
2022-09-20T17:04:11.090Z,55.5
2022-09-20T17:09:49.359Z,55.4
2022-09-20T17:15:26.994Z,55.4
2022-09-20T17:20:51.118Z,55.4
2022-09-20T17:26:28.355Z,55.3
2022-09-20T17:31:55.446Z,55.3
2022-09-20T17:37:18.982Z,55.3
2022-09-20T17:42:45.912Z,55.3
2022-09-20T17:48:24.313Z,55.2
2022-09-20T17:53:47.899Z,55.2
2022-09-20T17:59:09.809Z,55.1
2022-09-20T18:04:52.993Z,55.1
2022-09-20T18:09:44.831Z,55.1
2022-09-20T18:15:11.987Z,55
2022-09-20T18:20:33.884Z,55
2022-09-20T18:26:12.408Z,54.9
2022-09-20T18:31:53.725Z,54.9
2022-09-20T18:37:31.596Z,54.9
2022-09-20T18:43:10.324Z,54.8
2022-09-20T18:48:01.747Z,54.8
2022-09-20T18:53:24.347Z,54.8
2022-09-20T18:59:07.474Z,54.8
2022-09-20T19:04:53.188Z,54.7
2022-09-20T19:10:33.811Z,54.6
2022-09-20T19:16:00.557Z,54.6
2022-09-20T19:21:23.229Z,54.6
2022-09-20T19:26:50.073Z,54.5
2022-09-20T19:32:13.065Z,54.5
2022-09-20T19:37:49.943Z,54.4
2022-09-20T19:43:27.535Z,54.4
2022-09-20T19:49:06.194Z,54.4
2022-09-20T19:54:27.986Z,54.3
2022-09-20T19:59:52.157Z,54.3
2022-09-20T20:05:15.678Z,54.3
2022-09-20T20:10:41.248Z,54.3
2022-09-20T20:15:36.917Z,54.2
2022-09-20T20:20:59.428Z,54.2
2022-09-20T20:26:37.873Z,54.1
2022-09-20T20:32:05.871Z,54.1
2022-09-20T20:37:43.685Z,54.1
2022-09-20T20:43:24.503Z,54
2022-09-20T20:49:01.052Z,54
2022-09-20T20:54:41.023Z,53.9
2022-09-20T20:59:47.209Z,53.9
2022-09-20T21:05:14.977Z,53.9
